Terminal Aerodrome Forecast
Issued by NWS

Home | Current Version | Previous Version | Text Only | Print | Product List | Glossary On
Versions: 1 2 3 4 5 6 7 8 9 10 11 12 13 14 15 16 17 18 19 20 21 22 23 24 25 26 27 28 29 30 31 32 33 34
000
FTUS41 KPBZ 281936 AAA
TAFMGW
TAF AMD
KMGW 281936Z 2820/2918 00000KT 4SM -SHRA BR SCT005 OVC040
      TEMPO 2820/2822 2SM SHRA BR BKN005
     FM290300 00000KT 2SM BR OVC010
     FM290800 00000KT 1SM BR OVC007
     FM291300 25004KT 3SM BR OVC010
     FM291500 30005KT P6SM BKN045=

USA.gov is the U.S. government's official web portal to all federal, state and local government web resources and services.